Terminal Aerodrome Forecast
Issued by NWS Louisville, KY

Home | Current Version | Previous Version | Text Only | Print | Product List | Glossary On
Versions: 1 2 3 4 5 6 7 8 9 10 11 12 13
000
FTUS43 KLMK 241147
TAFBWG
TAF
KBWG 241147Z 2412/2512 32005KT P6SM SCT050 BKN150
     FM241600 31010KT P6SM SCT050
     FM250100 VRB03KT P6SM FEW250=

USA.gov is the U.S. government's official web portal to all federal, state and local government web resources and services.